To NAV CANADA Home Page Login to a new session Search on AWWS site Feedback and Comments Disclaimer Vers la page française équivalente Tips FAQ What's new on the site To the Forecasts and Observations / NOTAM section To "File a Flight Plan" website Publications and other links Update of the User's profile FIC Telephone Numbers My Weather Data Folder Route Weather Data Regional Weather Data Local Weather Data To the Forecasts and Observations / NOTAM section
Request Generated 10/17/2017 at 01:54:28 UTC . Weather information available at that time is displayed.

METAR/TAF

CAPE DORSET/NU    (show WxCam)

SPECI CYTE 170151Z AUTO 29011KT 9SM -SN FEW038 BKN090 OVC110 M03/M04
A2956 RMK SLP016=
SPECI CYTE 170138Z AUTO 29010KT 9SM FEW038 SCT085 BKN110 M03/M04
A2956 RMK SLP015=
METAR CYTE 170100Z AUTO 29010KT 9SM -SN OVC031 M03/M04 A2955 RMK
SLP013=
METAR CYTE 170000Z AUTO 28007KT 230V300 9SM -SN BKN046 M03/M04 A2955
RMK SLP012=
SPECI CYTE 162331Z AUTO 28006KT 8SM -SN SCT023 BKN048 M03/M03 A2955
RMK SLP011=
SPECI CYTE 162317Z AUTO 27005KT 6SM -SN BKN023 OVC048 M03/M03 A2955
RMK SLP011=
SPECI CYTE 162311Z AUTO 27005KT 6SM -SN BKN027 OVC046 M03/M03 A2955
RMK SLP011=
METAR CYTE 162300Z AUTO 28007KT 5SM -SN BKN025 OVC041 M02/M03 A2954
RMK SLP010=

TAF CYTE 170038Z 1701/1713 28010KT P6SM -SN SCT020 OVC040 TEMPO
1701/1713 5SM -SN FEW008 BKN020
RMK FCST BASED ON AUTO OBS. NXT FCST BY 170700Z=
Your time UTC time
Weather data provided by Environment Canada and NAV CANADA